Time;durP1;ratioP1;P1;durP2;ratioP2;P2;SDS_P1;SDS_P2;PMS_P1;PMS_P2;Temp;Humidity;BMP_temperature;BMP_pressure;BME280_temperature;BME280_humidity;BME280_pressure;Samples;Min_cycle;Max_cycle;Signal;HPM_P1;HPM_P2
2023/08/11 00:02:11;;;;;;;;;;;20.00;51.20;;;;;;5011747;28;20369;-68
2023/08/11 00:04:37;;;;;;;;;;;19.90;51.30;;;;;;5013287;28;20000;-68
2023/08/11 00:07:03;;;;;;;;;;;19.80;51.40;;;;;;5012404;28;19917;-68
2023/08/11 00:09:28;;;;;;;;;;;19.80;51.60;;;;;;5013397;28;19919;-68
2023/08/11 00:11:55;;;;;;;;;;;19.70;51.80;;;;;;5013743;28;19968;-68
2023/08/11 00:14:20;;;;;;;;;;;19.60;51.90;;;;;;5013375;28;19921;-68
2023/08/11 00:16:45;;;;;;;;;;;19.60;52.00;;;;;;5013472;28;19918;-68
2023/08/11 00:19:11;;;;;;;;;;;19.50;52.20;;;;;;5010725;28;20365;-68
2023/08/11 00:21:36;;;;;;;;;;;19.40;52.30;;;;;;5012788;28;19925;-68
2023/08/11 00:24:02;;;;;;;;;;;19.40;52.40;;;;;;5013138;28;19953;-68
2023/08/11 00:26:30;;;;;;;;;;;19.30;52.50;;;;;;5013018;28;19926;-68
2023/08/11 00:28:56;;;;;;;;;;;19.20;52.80;;;;;;5012462;28;19917;-68
2023/08/11 00:31:21;;;;;;;;;;;19.30;52.80;;;;;;5013390;28;20408;-68
2023/08/11 00:33:48;;;;;;;;;;;19.20;53.00;;;;;;5013017;28;19952;-68
2023/08/11 00:36:14;;;;;;;;;;;19.20;53.10;;;;;;5013134;28;20281;-68
2023/08/11 00:38:40;;;;;;;;;;;19.10;53.30;;;;;;5012856;28;19917;-67
2023/08/11 00:41:06;;;;;;;;;;;19.10;53.60;;;;;;5012362;28;19918;-68
2023/08/11 00:43:32;;;;;;;;;;;19.00;53.70;;;;;;5012688;28;20281;-68
2023/08/11 00:46:00;;;;;;;;;;;18.90;53.70;;;;;;5012583;28;19917;-69
2023/08/11 00:48:25;;;;;;;;;;;18.80;53.70;;;;;;5008236;28;19960;-67
2023/08/11 00:50:57;;;;;;;;;;;18.80;53.80;;;;;;5010307;28;20386;-68
2023/08/11 00:53:22;;;;;;;;;;;18.80;53.90;;;;;;5012645;28;19913;-67
2023/08/11 00:55:48;;;;;;;;;;;18.70;54.10;;;;;;5011805;28;20447;-66
2023/08/11 00:58:13;;;;;;;;;;;18.70;54.00;;;;;;5012629;28;20283;-66
2023/08/11 01:00:39;;;;;;;;;;;18.70;54.00;;;;;;5012702;28;20028;-66
2023/08/11 01:03:04;;;;;;;;;;;18.60;54.10;;;;;;5012390;28;19967;-67
2023/08/11 01:05:33;;;;;;;;;;;18.60;54.10;;;;;;5012427;28;19909;-71
2023/08/11 01:07:59;;;;;;;;;;;18.60;54.20;;;;;;5012498;28;20028;-69
2023/08/11 01:10:42;;;;;;;;;;;18.50;54.20;;;;;;5012492;28;19994;-67
2023/08/11 01:13:17;;;;;;;;;;;18.50;54.40;;;;;;5012226;28;20342;-67
2023/08/11 01:15:45;;;;;;;;;;;18.40;54.60;;;;;;5012172;28;20361;-68
2023/08/11 01:18:12;;;;;;;;;;;18.40;54.60;;;;;;5012219;28;19913;-67
2023/08/11 01:20:38;;;;;;;;;;;18.30;54.70;;;;;;5011873;28;19913;-68
2023/08/11 01:23:04;;;;;;;;;;;18.40;54.70;;;;;;5011979;28;19913;-69
2023/08/11 01:25:30;;;;;;;;;;;18.30;54.70;;;;;;5011891;28;20455;-67
2023/08/11 01:27:56;;;;;;;;;;;18.30;54.80;;;;;;5011975;28;19922;-68
2023/08/11 01:30:22;;;;;;;;;;;18.20;54.90;;;;;;5011561;28;20288;-68
2023/08/11 01:32:48;;;;;;;;;;;18.20;55.10;;;;;;5012480;28;19989;-68
2023/08/11 01:35:13;;;;;;;;;;;18.20;55.30;;;;;;5011819;28;19928;-68
2023/08/11 01:37:39;;;;;;;;;;;18.20;55.30;;;;;;5012303;28;19913;-68
2023/08/11 01:40:10;;;;;;;;;;;18.20;55.30;;;;;;5012042;28;20019;-68
2023/08/11 01:42:39;;;;;;;;;;;18.10;55.40;;;;;;5012520;28;19957;-67
2023/08/11 01:45:06;;;;;;;;;;;18.00;55.70;;;;;;5011677;28;19936;-75
2023/08/11 01:47:32;;;;;;;;;;;18.00;56.00;;;;;;5011433;28;20373;-75
2023/08/11 01:49:58;;;;;;;;;;;18.00;56.20;;;;;;5011480;28;19920;-74
2023/08/11 01:52:24;;;;;;;;;;;18.00;56.10;;;;;;5011695;28;19914;-75
2023/08/11 01:54:50;;;;;;;;;;;18.00;56.10;;;;;;5005869;28;20404;-75
2023/08/11 01:57:16;;;;;;;;;;;18.00;56.50;;;;;;4992424;28;19973;-76
2023/08/11 01:59:41;;;;;;;;;;;17.90;56.40;;;;;;4992019;28;19925;-74
2023/08/11 02:02:08;;;;;;;;;;;17.90;56.20;;;;;;4991301;28;20005;-76
2023/08/11 02:04:33;;;;;;;;;;;17.90;56.30;;;;;;4991991;28;19910;-75
2023/08/11 02:06:59;;;;;;;;;;;17.90;56.50;;;;;;4992281;28;19917;-76
2023/08/11 02:09:24;;;;;;;;;;;17.80;56.50;;;;;;4992185;28;19976;-69
2023/08/11 02:11:50;;;;;;;;;;;17.80;56.50;;;;;;4992237;28;20293;-69
2023/08/11 02:14:15;;;;;;;;;;;17.80;56.50;;;;;;4991859;28;20345;-69
2023/08/11 02:16:41;;;;;;;;;;;17.70;56.60;;;;;;4992276;28;19918;-70
2023/08/11 02:19:06;;;;;;;;;;;17.80;57.00;;;;;;5010338;28;19917;-69
2023/08/11 02:21:33;;;;;;;;;;;17.70;57.70;;;;;;4993832;28;19960;-69
2023/08/11 02:23:58;;;;;;;;;;;17.80;57.60;;;;;;5000893;28;20384;-69
2023/08/11 02:26:24;;;;;;;;;;;17.70;57.40;;;;;;4974448;28;19918;-69
2023/08/11 02:28:49;;;;;;;;;;;17.70;57.40;;;;;;4991889;28;19914;-70
2023/08/11 02:31:15;;;;;;;;;;;17.70;57.30;;;;;;4992101;28;20358;-69
2023/08/11 02:33:40;;;;;;;;;;;17.70;57.40;;;;;;4991666;28;19917;-67
2023/08/11 02:36:06;;;;;;;;;;;17.60;57.40;;;;;;5003662;28;20006;-70
2023/08/11 02:38:32;;;;;;;;;;;17.60;57.30;;;;;;5011283;28;19913;-70
2023/08/11 02:40:57;;;;;;;;;;;17.50;57.30;;;;;;4994379;28;20280;-69
2023/08/11 02:43:22;;;;;;;;;;;17.50;57.50;;;;;;5014848;28;19921;-70
2023/08/11 02:45:48;;;;;;;;;;;17.50;57.80;;;;;;5012717;28;19956;-69
2023/08/11 02:48:13;;;;;;;;;;;17.50;58.10;;;;;;5012826;28;19914;-70
2023/08/11 02:50:39;;;;;;;;;;;17.50;58.10;;;;;;5014667;28;19975;-69
2023/08/11 02:53:04;;;;;;;;;;;17.50;58.10;;;;;;5013598;28;19913;-70
2023/08/11 02:55:30;;;;;;;;;;;17.40;57.80;;;;;;5014289;28;19913;-70
2023/08/11 02:57:55;;;;;;;;;;;17.40;57.70;;;;;;5013156;28;19921;-70
2023/08/11 03:00:21;;;;;;;;;;;17.30;57.70;;;;;;5014291;28;19918;-70
2023/08/11 03:02:46;;;;;;;;;;;17.30;57.60;;;;;;5015057;28;19922;-70
2023/08/11 03:05:12;;;;;;;;;;;17.30;57.60;;;;;;5014698;28;19909;-69
2023/08/11 03:07:40;;;;;;;;;;;17.30;57.70;;;;;;5014915;28;19970;-69
2023/08/11 03:10:06;;;;;;;;;;;17.20;57.70;;;;;;5014651;28;19936;-69
2023/08/11 03:12:32;;;;;;;;;;;17.20;57.90;;;;;;5014890;28;19918;-70
2023/08/11 03:14:57;;;;;;;;;;;17.20;57.90;;;;;;4996681;28;20361;-71
2023/08/11 03:17:23;;;;;;;;;;;17.20;57.90;;;;;;5015044;28;20280;-70
2023/08/11 03:19:49;;;;;;;;;;;17.20;58.10;;;;;;5014147;28;19935;-75
2023/08/11 03:22:17;;;;;;;;;;;17.10;58.30;;;;;;5014864;28;20037;-77
2023/08/11 03:24:45;;;;;;;;;;;17.10;58.40;;;;;;5014165;28;20369;-75
2023/08/11 03:27:15;;;;;;;;;;;17.00;58.40;;;;;;4996010;28;20020;-76
2023/08/11 03:29:40;;;;;;;;;;;17.00;58.40;;;;;;5014323;28;19916;-76
2023/08/11 03:32:06;;;;;;;;;;;17.00;58.40;;;;;;5014392;28;20341;-76
2023/08/11 03:34:31;;;;;;;;;;;17.00;58.40;;;;;;5012389;28;19957;-74
2023/08/11 03:36:57;;;;;;;;;;;17.00;58.50;;;;;;5007554;28;19952;-75
2023/08/11 03:39:22;;;;;;;;;;;17.00;58.50;;;;;;5012494;28;19971;-76
2023/08/11 03:41:48;;;;;;;;;;;17.00;58.60;;;;;;4988455;28;20388;-76
2023/08/11 03:44:13;;;;;;;;;;;16.90;58.70;;;;;;5014069;28;19909;-76
2023/08/11 03:46:39;;;;;;;;;;;16.90;58.80;;;;;;5013917;28;20030;-76
2023/08/11 03:49:06;;;;;;;;;;;17.00;58.80;;;;;;5013883;28;19917;-73
2023/08/11 03:51:32;;;;;;;;;;;16.90;58.70;;;;;;5013859;28;20400;-75
2023/08/11 03:53:58;;;;;;;;;;;16.90;58.80;;;;;;5013744;28;19913;-76
2023/08/11 03:56:24;;;;;;;;;;;16.90;58.90;;;;;;5013901;28;19918;-75
2023/08/11 03:58:50;;;;;;;;;;;16.90;58.90;;;;;;5013860;28;19913;-76
2023/08/11 04:01:16;;;;;;;;;;;16.80;58.80;;;;;;4997501;28;19931;-75
2023/08/11 04:03:42;;;;;;;;;;;16.80;58.70;;;;;;4994110;28;19914;-75
2023/08/11 04:06:07;;;;;;;;;;;16.80;58.80;;;;;;4994273;28;19918;-75
2023/08/11 04:08:33;;;;;;;;;;;16.80;58.90;;;;;;4976772;28;19965;-77
2023/08/11 04:10:58;;;;;;;;;;;16.80;59.00;;;;;;4993950;28;20289;-75
2023/08/11 04:13:24;;;;;;;;;;;16.80;59.10;;;;;;4993863;28;19909;-76
2023/08/11 04:15:49;;;;;;;;;;;16.90;59.10;;;;;;4993907;28;19909;-75
2023/08/11 04:18:15;;;;;;;;;;;16.90;59.30;;;;;;5010295;28;20401;-76
2023/08/11 04:20:40;;;;;;;;;;;17.10;59.50;;;;;;5012315;28;20012;-76
2023/08/11 04:23:05;;;;;;;;;;;17.20;59.60;;;;;;5012172;28;19960;-75
2023/08/11 04:25:31;;;;;;;;;;;17.40;59.70;;;;;;5012921;28;19956;-75
2023/08/11 04:27:57;;;;;;;;;;;17.70;60.00;;;;;;5013250;28;19913;-76
2023/08/11 04:30:22;;;;;;;;;;;17.90;60.30;;;;;;5011160;28;19996;-70
2023/08/11 04:32:48;;;;;;;;;;;18.20;60.50;;;;;;5013407;28;19984;-70
2023/08/11 04:35:14;;;;;;;;;;;18.50;60.70;;;;;;5009889;28;20009;-70
2023/08/11 04:37:40;;;;;;;;;;;18.80;60.90;;;;;;5012071;28;19921;-69
2023/08/11 04:40:10;;;;;;;;;;;19.20;61.10;;;;;;5013637;28;20016;-69
2023/08/11 04:42:35;;;;;;;;;;;19.50;61.10;;;;;;5012642;28;19928;-69
2023/08/11 04:45:01;;;;;;;;;;;19.90;61.20;;;;;;5011744;28;20630;-69
2023/08/11 04:47:26;;;;;;;;;;;20.30;61.10;;;;;;5013229;28;19917;-69
2023/08/11 04:49:52;;;;;;;;;;;20.70;60.80;;;;;;5012808;28;19920;-68
2023/08/11 04:52:17;;;;;;;;;;;21.00;60.60;;;;;;5013175;28;19917;-69
2023/08/11 04:54:43;;;;;;;;;;;21.30;60.00;;;;;;5012709;28;19920;-71
2023/08/11 04:57:08;;;;;;;;;;;21.70;60.00;;;;;;4995538;28;20262;-69
2023/08/11 04:59:34;;;;;;;;;;;22.10;60.00;;;;;;5012713;28;19918;-69
2023/08/11 05:02:00;;;;;;;;;;;22.50;59.10;;;;;;5012763;28;19917;-69
2023/08/11 05:04:25;;;;;;;;;;;22.90;58.60;;;;;;4992716;28;20380;-68
2023/08/11 05:06:51;;;;;;;;;;;23.20;58.40;;;;;;5012022;28;20304;-68
2023/08/11 05:09:16;;;;;;;;;;;23.60;57.90;;;;;;5012404;28;19920;-68
2023/08/11 05:11:42;;;;;;;;;;;24.00;57.60;;;;;;5012799;28;19917;-68
2023/08/11 05:14:07;;;;;;;;;;;24.40;57.30;;;;;;5012483;28;20314;-68
2023/08/11 05:16:33;;;;;;;;;;;24.90;56.50;;;;;;5012584;28;20365;-69
2023/08/11 05:18:58;;;;;;;;;;;25.20;54.80;;;;;;4994795;28;19909;-70
2023/08/11 05:21:24;;;;;;;;;;;25.60;54.30;;;;;;5012437;28;19921;-69
2023/08/11 05:23:50;;;;;;;;;;;25.90;53.20;;;;;;5012422;28;19926;-70
2023/08/11 05:26:15;;;;;;;;;;;26.20;51.50;;;;;;5012577;28;20386;-70
2023/08/11 05:28:41;;;;;;;;;;;26.60;51.70;;;;;;5012424;28;19917;-70
2023/08/11 05:31:08;;;;;;;;;;;27.00;51.40;;;;;;5012142;28;19910;-70
2023/08/11 05:33:34;;;;;;;;;;;27.50;50.20;;;;;;5010364;28;19928;-72
2023/08/11 05:36:00;;;;;;;;;;;28.00;49.70;;;;;;5008793;28;19914;-68
2023/08/11 05:38:25;;;;;;;;;;;28.40;48.70;;;;;;4994159;28;19925;-67
2023/08/11 05:40:51;;;;;;;;;;;28.70;46.90;;;;;;5007116;28;19945;-68
2023/08/11 05:43:17;;;;;;;;;;;29.10;46.80;;;;;;5013261;28;19918;-68
2023/08/11 05:45:43;;;;;;;;;;;29.40;46.50;;;;;;5010718;28;19913;-68
2023/08/11 05:48:08;;;;;;;;;;;29.80;44.70;;;;;;5021994;28;19920;-68
2023/08/11 05:50:34;;;;;;;;;;;30.10;44.10;;;;;;5019763;28;20008;-68
2023/08/11 05:52:59;;;;;;;;;;;30.40;43.30;;;;;;5015113;28;19921;-68
2023/08/11 05:55:25;;;;;;;;;;;30.70;42.80;;;;;;5026886;28;20019;-68
2023/08/11 05:57:50;;;;;;;;;;;31.10;42.40;;;;;;5019979;28;19917;-68
2023/08/11 06:00:16;;;;;;;;;;;31.40;41.50;;;;;;5018677;28;19952;-68
2023/08/11 06:02:42;;;;;;;;;;;31.80;40.50;;;;;;5013774;28;19921;-69
2023/08/11 06:05:08;;;;;;;;;;;32.00;39.50;;;;;;5026284;28;20317;-68
2023/08/11 06:07:33;;;;;;;;;;;32.30;39.30;;;;;;5012675;28;19914;-69
2023/08/11 06:09:59;;;;;;;;;;;32.40;38.40;;;;;;5031241;28;19953;-69
2023/08/11 06:12:25;;;;;;;;;;;32.70;38.10;;;;;;4991894;28;19964;-69
2023/08/11 06:14:50;;;;;;;;;;;32.80;36.80;;;;;;5031835;28;20261;-69
2023/08/11 06:17:15;;;;;;;;;;;32.90;36.40;;;;;;5019858;28;20019;-70
2023/08/11 06:19:41;;;;;;;;;;;33.00;36.00;;;;;;5034133;28;19944;-69
2023/08/11 06:22:06;;;;;;;;;;;33.30;36.00;;;;;;5026693;28;19914;-69
2023/08/11 06:24:32;;;;;;;;;;;33.60;35.90;;;;;;5032567;28;19971;-70
2023/08/11 06:26:57;;;;;;;;;;;33.80;34.10;;;;;;5030544;28;19944;-70
2023/08/11 06:29:26;;;;;;;;;;;33.80;34.50;;;;;;5013746;28;19957;-67
2023/08/11 06:31:51;;;;;;;;;;;34.00;34.80;;;;;;5014263;28;20011;-70
2023/08/11 06:34:17;;;;;;;;;;;34.20;33.80;;;;;;5015477;28;20425;-68
2023/08/11 06:36:44;;;;;;;;;;;34.40;33.60;;;;;;5014064;28;19913;-67
2023/08/11 06:39:10;;;;;;;;;;;34.70;33.10;;;;;;5015114;28;19929;-67
2023/08/11 06:41:35;;;;;;;;;;;34.90;32.80;;;;;;5013948;28;19917;-68
2023/08/11 06:44:01;;;;;;;;;;;35.20;32.40;;;;;;4995958;28;20512;-68
2023/08/11 06:46:26;;;;;;;;;;;35.30;32.70;;;;;;5014972;28;19980;-68
2023/08/11 06:48:52;;;;;;;;;;;35.60;32.40;;;;;;5015011;28;19918;-68
2023/08/11 06:51:17;;;;;;;;;;;35.90;32.40;;;;;;5013419;28;19914;-68
2023/08/11 06:53:43;;;;;;;;;;;36.30;32.30;;;;;;4997250;28;20278;-67
2023/08/11 06:56:08;;;;;;;;;;;36.60;31.80;;;;;;4995106;28;19936;-68
2023/08/11 06:58:34;;;;;;;;;;;36.80;30.60;;;;;;4996122;28;19924;-68
2023/08/11 07:00:59;;;;;;;;;;;37.00;30.40;;;;;;5013896;28;19925;-70
2023/08/11 07:03:27;;;;;;;;;;;37.20;30.00;;;;;;5014525;28;21371;-69
2023/08/11 07:05:53;;;;;;;;;;;37.30;30.00;;;;;;5013171;28;20016;-69
2023/08/11 07:08:19;;;;;;;;;;;37.50;29.30;;;;;;5014214;28;20345;-69
2023/08/11 07:10:44;;;;;;;;;;;37.60;28.90;;;;;;4995121;28;19917;-69
2023/08/11 07:13:10;;;;;;;;;;;37.70;28.90;;;;;;5014459;28;20421;-68
2023/08/11 07:15:38;;;;;;;;;;;37.80;28.70;;;;;;4996658;28;19918;-68
2023/08/11 07:18:03;;;;;;;;;;;37.90;28.50;;;;;;5012451;28;19918;-69
2023/08/11 07:20:29;;;;;;;;;;;38.00;28.30;;;;;;5014388;28;19963;-69
2023/08/11 07:22:54;;;;;;;;;;;38.10;28.10;;;;;;5012351;28;19917;-70
2023/08/11 07:25:20;;;;;;;;;;;38.30;27.90;;;;;;5014137;28;19992;-68
2023/08/11 07:27:45;;;;;;;;;;;38.40;27.40;;;;;;5013276;28;19913;-68
2023/08/11 07:30:11;;;;;;;;;;;38.50;27.70;;;;;;5011735;28;19921;-68
2023/08/11 07:32:36;;;;;;;;;;;38.70;27.60;;;;;;5013959;28;19932;-69
2023/08/11 07:35:01;;;;;;;;;;;38.80;27.10;;;;;;5011885;28;19983;-68
2023/08/11 07:37:27;;;;;;;;;;;39.00;27.00;;;;;;4996758;28;19948;-69
2023/08/11 07:39:53;;;;;;;;;;;39.20;26.90;;;;;;5013540;28;19966;-68
2023/08/11 07:42:18;;;;;;;;;;;39.50;27.00;;;;;;5013956;28;19909;-68
2023/08/11 07:44:44;;;;;;;;;;;39.80;26.80;;;;;;5012705;28;19917;-70
2023/08/11 07:47:09;;;;;;;;;;;40.00;26.50;;;;;;5013793;28;19953;-68
2023/08/11 07:49:35;;;;;;;;;;;40.30;26.20;;;;;;5012619;28;19924;-68
2023/08/11 07:52:01;;;;;;;;;;;40.50;26.10;;;;;;5013756;28;19910;-68
2023/08/11 07:54:26;;;;;;;;;;;40.70;25.60;;;;;;5012050;28;20356;-68
2023/08/11 07:56:52;;;;;;;;;;;40.80;24.90;;;;;;5010693;28;20013;-68
2023/08/11 07:59:17;;;;;;;;;;;40.70;24.90;;;;;;4992721;28;19922;-70
2023/08/11 08:01:43;;;;;;;;;;;40.70;24.90;;;;;;5013446;28;19913;-68
2023/08/11 08:04:10;;;;;;;;;;;40.50;24.60;;;;;;4995902;28;19917;-68
2023/08/11 08:06:43;;;;;;;;;;;40.40;25.30;;;;;;4976378;28;20362;-67
2023/08/11 08:09:11;;;;;;;;;;;40.70;25.20;;;;;;5000171;28;19968;-68
2023/08/11 08:11:38;;;;;;;;;;;40.90;25.00;;;;;;5013414;28;19955;-69
2023/08/11 08:14:03;;;;;;;;;;;41.10;24.80;;;;;;5008163;28;20354;-69
2023/08/11 08:16:28;;;;;;;;;;;41.40;24.60;;;;;;5007965;28;20011;-69
2023/08/11 08:18:54;;;;;;;;;;;41.70;24.20;;;;;;5013161;28;20238;-70
2023/08/11 08:21:20;;;;;;;;;;;41.80;23.80;;;;;;5009214;28;20340;-69
2023/08/11 08:23:45;;;;;;;;;;;41.90;23.70;;;;;;5007882;28;19925;-69
2023/08/11 08:26:10;;;;;;;;;;;42.00;23.40;;;;;;5009313;28;20357;-71
2023/08/11 08:28:37;;;;;;;;;;;42.00;23.50;;;;;;4994065;28;19913;-69
2023/08/11 08:31:02;;;;;;;;;;;42.20;23.80;;;;;;5010741;28;20008;-69
2023/08/11 08:33:27;;;;;;;;;;;42.40;23.40;;;;;;5012887;28;20008;-69
2023/08/11 08:35:53;;;;;;;;;;;42.60;23.30;;;;;;5012800;28;20059;-68
2023/08/11 08:38:18;;;;;;;;;;;42.80;23.50;;;;;;4994353;28;19922;-69
2023/08/11 08:40:44;;;;;;;;;;;43.10;23.40;;;;;;4993388;28;20282;-70
2023/08/11 08:43:10;;;;;;;;;;;43.30;22.60;;;;;;4993190;28;19988;-69
2023/08/11 08:45:36;;;;;;;;;;;43.30;22.00;;;;;;5007706;28;19918;-69
2023/08/11 08:48:06;;;;;;;;;;;43.50;21.80;;;;;;5012573;28;20023;-69
2023/08/11 08:50:32;;;;;;;;;;;43.50;21.20;;;;;;5012600;28;19932;-69
2023/08/11 08:52:57;;;;;;;;;;;43.60;21.50;;;;;;5012581;28;19917;-69
2023/08/11 08:55:24;;;;;;;;;;;43.80;21.00;;;;;;5012480;28;19923;-69
2023/08/11 08:57:50;;;;;;;;;;;44.10;20.70;;;;;;5010799;28;19988;-69
2023/08/11 09:00:18;;;;;;;;;;;44.20;20.40;;;;;;5012441;28;19952;-70
2023/08/11 09:02:44;;;;;;;;;;;44.20;20.50;;;;;;4993002;28;19916;-70
2023/08/11 09:05:11;;;;;;;;;;;44.40;20.50;;;;;;4992599;28;20340;-69
2023/08/11 09:07:37;;;;;;;;;;;44.60;20.30;;;;;;5004954;28;19917;-69
2023/08/11 09:10:02;;;;;;;;;;;44.70;20.00;;;;;;5011238;28;19960;-69
2023/08/11 09:12:28;;;;;;;;;;;44.70;20.10;;;;;;5009805;28;20385;-69
2023/08/11 09:14:54;;;;;;;;;;;44.80;20.30;;;;;;5010616;28;19928;-70
2023/08/11 09:17:19;;;;;;;;;;;45.00;20.30;;;;;;5012151;28;19917;-69
2023/08/11 09:19:51;;;;;;;;;;;45.20;20.20;;;;;;5011931;28;19917;-70
2023/08/11 09:22:23;;;;;;;;;;;45.30;19.80;;;;;;5012103;28;19948;-71
2023/08/11 09:24:49;;;;;;;;;;;45.40;19.10;;;;;;5011718;28;19937;-69
2023/08/11 09:27:14;;;;;;;;;;;45.40;19.20;;;;;;5012106;28;19913;-69
2023/08/11 09:29:40;;;;;;;;;;;45.40;19.00;;;;;;5011310;28;19917;-69
2023/08/11 09:32:06;;;;;;;;;;;45.40;19.00;;;;;;5006400;28;19924;-69
2023/08/11 09:34:31;;;;;;;;;;;45.40;19.30;;;;;;5012149;28;19929;-70
2023/08/11 09:36:57;;;;;;;;;;;45.50;19.30;;;;;;5009702;28;19913;-70
2023/08/11 09:39:22;;;;;;;;;;;45.70;19.30;;;;;;5012016;28;19921;-69
2023/08/11 09:41:48;;;;;;;;;;;45.90;19.40;;;;;;5009406;28;19913;-68
2023/08/11 09:44:14;;;;;;;;;;;45.90;18.40;;;;;;5011876;28;20381;-69
2023/08/11 09:46:40;;;;;;;;;;;45.80;18.50;;;;;;5011730;28;19937;-69
2023/08/11 09:49:07;;;;;;;;;;;45.70;18.80;;;;;;4992680;28;19931;-69
2023/08/11 09:51:34;;;;;;;;;;;45.70;18.70;;;;;;5009881;28;19914;-70
2023/08/11 09:54:02;;;;;;;;;;;45.80;18.70;;;;;;5010624;28;19925;-70
2023/08/11 09:56:29;;;;;;;;;;;45.80;18.10;;;;;;5011674;28;19910;-67
2023/08/11 09:58:57;;;;;;;;;;;45.80;17.90;;;;;;5009736;28;19953;-68
2023/08/11 10:01:23;;;;;;;;;;;45.80;18.10;;;;;;5010408;28;19914;-68
2023/08/11 10:03:49;;;;;;;;;;;45.80;17.90;;;;;;5011350;28;20392;-68
2023/08/11 10:06:17;;;;;;;;;;;45.60;18.10;;;;;;5010841;28;19914;-68
2023/08/11 10:08:43;;;;;;;;;;;45.70;18.10;;;;;;5009798;28;21239;-69
2023/08/11 10:11:08;;;;;;;;;;;45.70;17.90;;;;;;5011020;28;19964;-68
2023/08/11 10:13:34;;;;;;;;;;;45.70;18.00;;;;;;5011413;28;20345;-68
2023/08/11 10:16:00;;;;;;;;;;;45.70;18.20;;;;;;4991894;28;20340;-69
2023/08/11 10:18:26;;;;;;;;;;;45.80;18.10;;;;;;5010527;28;19921;-69
2023/08/11 10:20:52;;;;;;;;;;;45.80;17.80;;;;;;5013093;28;19910;-74
2023/08/11 10:23:17;;;;;;;;;;;45.70;17.50;;;;;;4995138;28;19967;-75
2023/08/11 10:25:44;;;;;;;;;;;45.50;17.50;;;;;;5012657;28;19917;-77
2023/08/11 10:28:12;;;;;;;;;;;45.40;17.60;;;;;;5010209;28;19925;-77
2023/08/11 10:30:38;;;;;;;;;;;45.40;18.00;;;;;;4995103;28;20327;-78
2023/08/11 10:33:04;;;;;;;;;;;45.40;18.20;;;;;;4994966;28;20087;-76
2023/08/11 10:35:34;;;;;;;;;;;45.60;18.30;;;;;;4996060;28;20048;-76
2023/08/11 10:38:00;;;;;;;;;;;45.70;17.80;;;;;;5008854;28;20380;-76
2023/08/11 10:40:37;;;;;;;;;;;45.60;17.60;;;;;;5013270;28;19910;-77
2023/08/11 10:43:03;;;;;;;;;;;45.60;17.80;;;;;;5012634;28;20017;-78
2023/08/11 10:45:31;;;;;;;;;;;45.40;17.90;;;;;;5012116;28;20423;-76
2023/08/11 10:47:58;;;;;;;;;;;45.40;17.60;;;;;;5017470;28;19917;-77
2023/08/11 10:50:23;;;;;;;;;;;45.30;18.00;;;;;;4997790;28;19913;-76
2023/08/11 10:53:04;;;;;;;;;;;45.30;18.00;;;;;;5012302;28;19967;-76
2023/08/11 10:55:32;;;;;;;;;;;45.30;18.20;;;;;;5012988;28;19924;-77
2023/08/11 10:58:10;;;;;;;;;;;45.40;18.40;;;;;;4993704;28;19960;-76
2023/08/11 11:00:35;;;;;;;;;;;45.40;18.20;;;;;;5013169;28;19917;-77
2023/08/11 11:03:01;;;;;;;;;;;45.50;18.10;;;;;;5014681;28;19924;-77
2023/08/11 11:05:27;;;;;;;;;;;45.50;17.70;;;;;;5014645;28;20016;-77
2023/08/11 11:07:53;;;;;;;;;;;45.30;17.70;;;;;;5016185;28;19968;-78
2023/08/11 11:10:18;;;;;;;;;;;45.10;17.80;;;;;;5016584;28;20506;-77
2023/08/11 11:12:44;;;;;;;;;;;44.90;17.60;;;;;;5030034;28;20023;-78
2023/08/11 11:15:09;;;;;;;;;;;44.80;18.10;;;;;;5015383;28;20456;-77
2023/08/11 11:17:35;;;;;;;;;;;44.90;18.20;;;;;;5035631;28;19924;-77
2023/08/11 11:20:00;;;;;;;;;;;44.80;18.20;;;;;;5017422;28;20234;-75
2023/08/11 11:22:26;;;;;;;;;;;44.90;18.40;;;;;;5026175;28;19917;-78
2023/08/11 11:24:51;;;;;;;;;;;44.80;18.40;;;;;;5021392;28;19918;-75
2023/08/11 11:27:17;;;;;;;;;;;44.80;18.10;;;;;;5014852;28;20063;-72
2023/08/11 11:29:43;;;;;;;;;;;44.50;18.10;;;;;;5013192;28;19929;-76
2023/08/11 11:32:08;;;;;;;;;;;44.40;18.20;;;;;;5011878;28;19914;-76
2023/08/11 11:34:36;;;;;;;;;;;44.20;18.40;;;;;;5014024;28;20428;-77
2023/08/11 11:37:01;;;;;;;;;;;44.10;18.70;;;;;;5013403;28;20329;-76
2023/08/11 11:39:27;;;;;;;;;;;44.00;18.50;;;;;;5015670;28;19925;-77
2023/08/11 11:41:52;;;;;;;;;;;43.90;18.70;;;;;;5020984;28;20277;-77
2023/08/11 11:44:18;;;;;;;;;;;43.90;18.90;;;;;;5031363;28;20019;-77
2023/08/11 11:46:43;;;;;;;;;;;43.90;18.90;;;;;;5015618;28;19920;-77
2023/08/11 11:49:09;;;;;;;;;;;43.80;18.20;;;;;;5010215;28;20365;-77
2023/08/11 11:51:35;;;;;;;;;;;43.60;18.50;;;;;;5006012;28;20309;-77
2023/08/11 11:54:00;;;;;;;;;;;43.40;18.60;;;;;;5014131;28;20128;-76
2023/08/11 11:56:29;;;;;;;;;;;43.30;18.80;;;;;;5013888;28;19917;-77
2023/08/11 11:58:55;;;;;;;;;;;43.20;18.90;;;;;;5013634;28;19921;-77
2023/08/11 12:01:22;;;;;;;;;;;43.10;19.10;;;;;;5015200;28;19913;-76
2023/08/11 12:03:48;;;;;;;;;;;43.10;18.80;;;;;;5023322;28;19917;-76
2023/08/11 12:06:14;;;;;;;;;;;42.80;18.80;;;;;;5017521;28;19920;-75
2023/08/11 12:08:41;;;;;;;;;;;42.60;19.30;;;;;;5034169;28;19960;-75
2023/08/11 12:11:08;;;;;;;;;;;42.40;19.50;;;;;;5014123;28;19913;-76
2023/08/11 12:13:36;;;;;;;;;;;42.40;19.50;;;;;;5035128;28;20003;-75
2023/08/11 12:16:02;;;;;;;;;;;42.30;19.40;;;;;;5034299;28;19917;-75
2023/08/11 12:18:28;;;;;;;;;;;42.20;19.40;;;;;;5016028;28;19913;-77
2023/08/11 12:20:57;;;;;;;;;;;42.10;19.40;;;;;;5012013;28;20351;-76
2023/08/11 12:23:23;;;;;;;;;;;42.00;19.50;;;;;;4995766;28;20352;-76
2023/08/11 12:25:48;;;;;;;;;;;41.90;19.60;;;;;;5013992;28;19945;-77
2023/08/11 12:28:14;;;;;;;;;;;41.80;19.40;;;;;;5013549;28;20008;-77
2023/08/11 12:30:39;;;;;;;;;;;41.70;19.60;;;;;;5013014;28;19920;-76
2023/08/11 12:33:05;;;;;;;;;;;41.50;20.00;;;;;;5013206;28;20416;-75
2023/08/11 12:35:31;;;;;;;;;;;41.60;20.20;;;;;;5013105;28;19940;-75
2023/08/11 12:37:56;;;;;;;;;;;41.70;20.40;;;;;;5012679;28;19976;-75
2023/08/11 12:40:24;;;;;;;;;;;41.80;20.20;;;;;;5012587;28;20357;-75
2023/08/11 12:42:49;;;;;;;;;;;41.70;20.20;;;;;;5012701;28;19909;-74
2023/08/11 12:45:15;;;;;;;;;;;41.50;20.20;;;;;;5012004;28;20276;-75
2023/08/11 12:47:40;;;;;;;;;;;41.30;20.40;;;;;;5011310;28;19916;-75
2023/08/11 12:50:06;;;;;;;;;;;41.20;20.90;;;;;;4991050;28;20016;-76
2023/08/11 12:52:32;;;;;;;;;;;41.40;21.10;;;;;;5012812;28;19909;-75
2023/08/11 12:54:57;;;;;;;;;;;41.50;21.00;;;;;;4994918;28;19952;-77
2023/08/11 12:57:22;;;;;;;;;;;41.50;21.00;;;;;;5012256;28;19909;-76
2023/08/11 12:59:48;;;;;;;;;;;41.40;21.00;;;;;;5012565;28;19927;-77
2023/08/11 13:02:14;;;;;;;;;;;41.40;21.20;;;;;;5012765;28;20332;-75
2023/08/11 13:04:39;;;;;;;;;;;41.40;21.10;;;;;;5013312;28;19944;-75
2023/08/11 13:07:04;;;;;;;;;;;41.30;21.20;;;;;;5013600;28;19964;-72
2023/08/11 13:09:30;;;;;;;;;;;41.20;21.10;;;;;;5014115;28;19928;-78
2023/08/11 13:11:55;;;;;;;;;;;41.00;21.30;;;;;;5012895;28;20384;-77
2023/08/11 13:14:21;;;;;;;;;;;40.90;21.60;;;;;;5012785;28;20289;-78
2023/08/11 13:16:46;;;;;;;;;;;40.90;21.50;;;;;;5012052;28;20071;-76
2023/08/11 13:19:12;;;;;;;;;;;40.70;21.40;;;;;;5014387;28;19917;-76
2023/08/11 13:21:37;;;;;;;;;;;40.50;21.40;;;;;;5012434;28;20064;-75
2023/08/11 13:24:03;;;;;;;;;;;40.30;21.70;;;;;;5013203;28;19917;-76
2023/08/11 13:26:28;;;;;;;;;;;40.30;21.90;;;;;;5012199;28;19916;-78
2023/08/11 13:28:57;;;;;;;;;;;40.30;22.10;;;;;;5013369;28;20005;-76
2023/08/11 13:31:22;;;;;;;;;;;40.30;22.10;;;;;;5012076;28;19995;-77
2023/08/11 13:33:48;;;;;;;;;;;40.30;22.10;;;;;;5012452;28;20354;-77
2023/08/11 13:36:15;;;;;;;;;;;40.30;22.30;;;;;;5012401;28;19944;-78
2023/08/11 13:38:41;;;;;;;;;;;40.40;22.30;;;;;;5007087;28;20365;-76
2023/08/11 13:41:06;;;;;;;;;;;40.60;22.40;;;;;;4992727;28;20004;-74
2023/08/11 13:43:35;;;;;;;;;;;40.80;22.40;;;;;;4992883;28;19918;-75
2023/08/11 13:46:00;;;;;;;;;;;40.80;21.90;;;;;;5011424;28;19920;-76
2023/08/11 13:48:26;;;;;;;;;;;40.70;22.00;;;;;;5016018;28;19925;-76
2023/08/11 13:50:51;;;;;;;;;;;40.80;22.00;;;;;;5011403;28;19921;-77
2023/08/11 13:53:17;;;;;;;;;;;40.60;21.50;;;;;;5012173;28;19968;-77
2023/08/11 13:55:42;;;;;;;;;;;40.30;21.90;;;;;;5010454;28;19972;-76
2023/08/11 13:58:08;;;;;;;;;;;40.20;22.00;;;;;;5010208;28;19917;-77
2023/08/11 14:00:33;;;;;;;;;;;40.10;22.10;;;;;;5010588;28;20355;-78
2023/08/11 14:02:59;;;;;;;;;;;40.10;22.50;;;;;;5011073;28;19917;-77
2023/08/11 14:05:24;;;;;;;;;;;40.20;22.40;;;;;;5012319;28;19917;-77
2023/08/11 14:07:50;;;;;;;;;;;40.00;22.40;;;;;;5010405;28;19925;-76
2023/08/11 14:10:15;;;;;;;;;;;39.80;22.60;;;;;;5009007;28;19917;-75